sensor_id;sensor_type;location;lat;lon;timestamp;P1;durP1;ratioP1;P2;durP2;ratioP2
61291;SDS011;47165;42.664;23.368;2022-07-12T00:00:37;2.17;;;1.65;;
61291;SDS011;47165;42.664;23.368;2022-07-12T00:03:02;2.13;;;1.92;;
61291;SDS011;47165;42.664;23.368;2022-07-12T00:05:28;2.30;;;1.90;;
61291;SDS011;47165;42.664;23.368;2022-07-12T00:07:53;2.38;;;2.17;;
61291;SDS011;47165;42.664;23.368;2022-07-12T00:10:19;2.90;;;1.88;;
61291;SDS011;47165;42.664;23.368;2022-07-12T00:12:44;1.70;;;1.60;;
61291;SDS011;47165;42.664;23.368;2022-07-12T00:15:09;2.17;;;1.98;;
61291;SDS011;47165;42.664;23.368;2022-07-12T00:17:35;1.58;;;1.48;;
61291;SDS011;47165;42.664;23.368;2022-07-12T00:20:01;6.00;;;1.77;;
61291;SDS011;47165;42.664;23.368;2022-07-12T00:22:26;4.00;;;1.73;;
61291;SDS011;47165;42.664;23.368;2022-07-12T00:24:53;2.65;;;2.08;;
61291;SDS011;47165;42.664;23.368;2022-07-12T00:27:19;1.83;;;1.60;;
61291;SDS011;47165;42.664;23.368;2022-07-12T00:29:45;1.50;;;1.40;;
61291;SDS011;47165;42.664;23.368;2022-07-12T00:32:10;2.10;;;1.95;;
61291;SDS011;47165;42.664;23.368;2022-07-12T00:34:36;5.05;;;2.03;;
61291;SDS011;47165;42.664;23.368;2022-07-12T00:37:01;1.95;;;1.75;;
61291;SDS011;47165;42.664;23.368;2022-07-12T00:39:27;1.60;;;1.50;;
61291;SDS011;47165;42.664;23.368;2022-07-12T00:41:52;3.13;;;2.03;;
61291;SDS011;47165;42.664;23.368;2022-07-12T00:44:18;2.30;;;2.10;;
61291;SDS011;47165;42.664;23.368;2022-07-12T00:46:43;3.20;;;2.20;;
61291;SDS011;47165;42.664;23.368;2022-07-12T00:49:10;2.40;;;2.03;;
61291;SDS011;47165;42.664;23.368;2022-07-12T00:51:40;3.30;;;2.00;;
61291;SDS011;47165;42.664;23.368;2022-07-12T00:54:08;2.63;;;1.85;;
61291;SDS011;47165;42.664;23.368;2022-07-12T00:56:33;4.55;;;1.80;;
61291;SDS011;47165;42.664;23.368;2022-07-12T00:58:59;1.88;;;1.65;;
61291;SDS011;47165;42.664;23.368;2022-07-12T01:01:24;2.40;;;2.20;;
61291;SDS011;47165;42.664;23.368;2022-07-12T01:03:50;2.25;;;2.03;;
61291;SDS011;47165;42.664;23.368;2022-07-12T01:06:18;2.47;;;2.28;;
61291;SDS011;47165;42.664;23.368;2022-07-12T01:08:45;2.28;;;2.08;;
61291;SDS011;47165;42.664;23.368;2022-07-12T01:11:11;3.42;;;1.70;;
61291;SDS011;47165;42.664;23.368;2022-07-12T01:13:37;1.95;;;1.75;;
61291;SDS011;47165;42.664;23.368;2022-07-12T01:16:03;2.92;;;2.35;;
61291;SDS011;47165;42.664;23.368;2022-07-12T01:18:30;2.20;;;2.00;;
61291;SDS011;47165;42.664;23.368;2022-07-12T01:20:58;2.45;;;2.22;;
61291;SDS011;47165;42.664;23.368;2022-07-12T01:23:28;2.95;;;2.17;;
61291;SDS011;47165;42.664;23.368;2022-07-12T01:25:54;2.70;;;2.50;;
61291;SDS011;47165;42.664;23.368;2022-07-12T01:28:20;5.80;;;3.22;;
61291;SDS011;47165;42.664;23.368;2022-07-12T01:30:46;8.00;;;3.55;;
61291;SDS011;47165;42.664;23.368;2022-07-12T01:33:12;3.80;;;3.15;;
61291;SDS011;47165;42.664;23.368;2022-07-12T01:35:39;3.75;;;2.38;;
61291;SDS011;47165;42.664;23.368;2022-07-12T01:38:05;3.72;;;3.03;;
61291;SDS011;47165;42.664;23.368;2022-07-12T01:40:31;2.53;;;2.22;;
61291;SDS011;47165;42.664;23.368;2022-07-12T01:42:56;3.00;;;2.70;;
61291;SDS011;47165;42.664;23.368;2022-07-12T01:45:22;2.97;;;2.75;;
61291;SDS011;47165;42.664;23.368;2022-07-12T01:47:48;3.30;;;2.85;;
61291;SDS011;47165;42.664;23.368;2022-07-12T01:50:14;3.38;;;3.08;;
61291;SDS011;47165;42.664;23.368;2022-07-12T01:52:40;4.60;;;3.45;;
61291;SDS011;47165;42.664;23.368;2022-07-12T01:55:06;5.65;;;2.85;;
61291;SDS011;47165;42.664;23.368;2022-07-12T01:57:33;3.42;;;2.92;;
61291;SDS011;47165;42.664;23.368;2022-07-12T02:00:05;7.22;;;2.97;;
61291;SDS011;47165;42.664;23.368;2022-07-12T02:02:32;3.78;;;2.75;;
61291;SDS011;47165;42.664;23.368;2022-07-12T02:05:02;3.67;;;2.70;;
61291;SDS011;47165;42.664;23.368;2022-07-12T02:07:28;3.65;;;3.17;;
61291;SDS011;47165;42.664;23.368;2022-07-12T02:09:53;4.13;;;2.58;;
61291;SDS011;47165;42.664;23.368;2022-07-12T02:12:19;3.47;;;2.67;;
61291;SDS011;47165;42.664;23.368;2022-07-12T02:14:45;5.20;;;2.95;;
61291;SDS011;47165;42.664;23.368;2022-07-12T02:17:11;4.55;;;2.70;;
61291;SDS011;47165;42.664;23.368;2022-07-12T02:19:36;3.83;;;2.80;;
61291;SDS011;47165;42.664;23.368;2022-07-12T02:22:01;4.13;;;2.67;;
61291;SDS011;47165;42.664;23.368;2022-07-12T02:24:27;4.00;;;2.80;;
61291;SDS011;47165;42.664;23.368;2022-07-12T02:26:53;2.92;;;2.65;;
61291;SDS011;47165;42.664;23.368;2022-07-12T02:29:18;3.05;;;2.70;;
61291;SDS011;47165;42.664;23.368;2022-07-12T02:31:44;5.40;;;2.72;;
61291;SDS011;47165;42.664;23.368;2022-07-12T02:34:09;3.00;;;2.67;;
61291;SDS011;47165;42.664;23.368;2022-07-12T02:36:34;2.38;;;2.10;;
61291;SDS011;47165;42.664;23.368;2022-07-12T02:39:00;3.60;;;3.10;;
61291;SDS011;47165;42.664;23.368;2022-07-12T02:41:29;3.03;;;2.35;;
61291;SDS011;47165;42.664;23.368;2022-07-12T02:43:54;3.83;;;2.45;;
61291;SDS011;47165;42.664;23.368;2022-07-12T02:46:20;2.38;;;2.15;;
61291;SDS011;47165;42.664;23.368;2022-07-12T02:48:45;2.83;;;2.35;;
61291;SDS011;47165;42.664;23.368;2022-07-12T02:51:11;2.33;;;2.08;;
61291;SDS011;47165;42.664;23.368;2022-07-12T02:53:37;3.92;;;1.95;;
61291;SDS011;47165;42.664;23.368;2022-07-12T02:56:02;3.05;;;1.90;;
61291;SDS011;47165;42.664;23.368;2022-07-12T02:58:28;2.10;;;1.77;;
61291;SDS011;47165;42.664;23.368;2022-07-12T03:00:54;3.33;;;2.00;;
61291;SDS011;47165;42.664;23.368;2022-07-12T03:03:20;2.38;;;1.83;;
61291;SDS011;47165;42.664;23.368;2022-07-12T03:05:45;2.58;;;1.98;;
61291;SDS011;47165;42.664;23.368;2022-07-12T03:08:11;3.40;;;2.25;;
61291;SDS011;47165;42.664;23.368;2022-07-12T03:10:37;3.90;;;2.45;;
61291;SDS011;47165;42.664;23.368;2022-07-12T03:13:04;2.53;;;1.95;;
61291;SDS011;47165;42.664;23.368;2022-07-12T03:15:30;1.58;;;1.48;;
61291;SDS011;47165;42.664;23.368;2022-07-12T03:17:56;1.73;;;1.63;;
61291;SDS011;47165;42.664;23.368;2022-07-12T03:20:23;2.20;;;1.88;;
61291;SDS011;47165;42.664;23.368;2022-07-12T03:22:48;3.00;;;1.92;;
61291;SDS011;47165;42.664;23.368;2022-07-12T03:25:17;2.92;;;1.98;;
61291;SDS011;47165;42.664;23.368;2022-07-12T03:27:43;3.47;;;2.25;;
61291;SDS011;47165;42.664;23.368;2022-07-12T03:30:08;3.55;;;1.73;;
61291;SDS011;47165;42.664;23.368;2022-07-12T03:32:34;3.55;;;2.38;;
61291;SDS011;47165;42.664;23.368;2022-07-12T03:35:00;2.10;;;1.90;;
61291;SDS011;47165;42.664;23.368;2022-07-12T03:37:26;2.72;;;1.90;;
61291;SDS011;47165;42.664;23.368;2022-07-12T03:39:51;2.50;;;1.95;;
61291;SDS011;47165;42.664;23.368;2022-07-12T03:42:18;2.13;;;1.90;;
61291;SDS011;47165;42.664;23.368;2022-07-12T03:44:44;2.33;;;1.83;;
61291;SDS011;47165;42.664;23.368;2022-07-12T03:47:10;3.22;;;2.15;;
61291;SDS011;47165;42.664;23.368;2022-07-12T03:49:35;2.47;;;2.03;;
61291;SDS011;47165;42.664;23.368;2022-07-12T03:52:00;2.83;;;2.08;;
61291;SDS011;47165;42.664;23.368;2022-07-12T03:54:28;3.78;;;1.83;;
61291;SDS011;47165;42.664;23.368;2022-07-12T03:56:53;2.20;;;2.00;;
61291;SDS011;47165;42.664;23.368;2022-07-12T03:59:37;1.73;;;1.63;;
61291;SDS011;47165;42.664;23.368;2022-07-12T04:02:03;3.63;;;1.98;;
61291;SDS011;47165;42.664;23.368;2022-07-12T04:04:28;3.17;;;2.35;;
61291;SDS011;47165;42.664;23.368;2022-07-12T04:06:54;2.85;;;2.13;;
61291;SDS011;47165;42.664;23.368;2022-07-12T04:09:19;8.63;;;1.73;;
61291;SDS011;47165;42.664;23.368;2022-07-12T04:11:45;3.13;;;1.90;;
61291;SDS011;47165;42.664;23.368;2022-07-12T04:14:11;2.38;;;2.00;;
61291;SDS011;47165;42.664;23.368;2022-07-12T04:16:36;2.72;;;1.95;;
61291;SDS011;47165;42.664;23.368;2022-07-12T04:19:02;2.10;;;1.90;;
61291;SDS011;47165;42.664;23.368;2022-07-12T04:21:27;2.78;;;1.98;;
61291;SDS011;47165;42.664;23.368;2022-07-12T04:23:53;2.63;;;2.10;;
61291;SDS011;47165;42.664;23.368;2022-07-12T04:26:18;2.60;;;2.20;;
61291;SDS011;47165;42.664;23.368;2022-07-12T04:28:44;3.13;;;2.38;;
61291;SDS011;47165;42.664;23.368;2022-07-12T04:31:09;3.17;;;2.40;;
61291;SDS011;47165;42.664;23.368;2022-07-12T04:33:34;2.47;;;2.10;;
61291;SDS011;47165;42.664;23.368;2022-07-12T04:36:00;2.47;;;1.95;;
61291;SDS011;47165;42.664;23.368;2022-07-12T04:38:26;2.78;;;2.47;;
61291;SDS011;47165;42.664;23.368;2022-07-12T04:40:51;3.72;;;2.65;;
61291;SDS011;47165;42.664;23.368;2022-07-12T04:43:17;5.38;;;2.97;;
61291;SDS011;47165;42.664;23.368;2022-07-12T04:45:42;5.13;;;2.15;;
61291;SDS011;47165;42.664;23.368;2022-07-12T04:48:11;3.25;;;2.42;;
61291;SDS011;47165;42.664;23.368;2022-07-12T04:50:36;2.88;;;2.42;;
61291;SDS011;47165;42.664;23.368;2022-07-12T04:53:02;3.33;;;2.83;;
61291;SDS011;47165;42.664;23.368;2022-07-12T04:55:28;5.25;;;2.83;;
61291;SDS011;47165;42.664;23.368;2022-07-12T04:57:53;6.05;;;3.28;;
61291;SDS011;47165;42.664;23.368;2022-07-12T05:00:19;3.17;;;2.88;;
61291;SDS011;47165;42.664;23.368;2022-07-12T05:02:44;4.43;;;3.40;;
61291;SDS011;47165;42.664;23.368;2022-07-12T05:05:09;2.95;;;2.75;;
61291;SDS011;47165;42.664;23.368;2022-07-12T05:07:35;4.53;;;3.40;;
61291;SDS011;47165;42.664;23.368;2022-07-12T05:10:00;4.38;;;3.13;;
61291;SDS011;47165;42.664;23.368;2022-07-12T05:12:26;3.92;;;3.20;;
61291;SDS011;47165;42.664;23.368;2022-07-12T05:14:51;6.15;;;3.30;;
61291;SDS011;47165;42.664;23.368;2022-07-12T05:17:16;5.63;;;3.08;;
61291;SDS011;47165;42.664;23.368;2022-07-12T05:19:42;5.50;;;3.35;;
61291;SDS011;47165;42.664;23.368;2022-07-12T05:22:07;5.20;;;3.85;;
61291;SDS011;47165;42.664;23.368;2022-07-12T05:24:33;6.05;;;3.55;;
61291;SDS011;47165;42.664;23.368;2022-07-12T05:26:58;6.07;;;4.13;;
61291;SDS011;47165;42.664;23.368;2022-07-12T05:29:23;5.28;;;3.67;;
61291;SDS011;47165;42.664;23.368;2022-07-12T05:31:49;3.35;;;3.05;;
61291;SDS011;47165;42.664;23.368;2022-07-12T05:34:14;4.60;;;2.90;;
61291;SDS011;47165;42.664;23.368;2022-07-12T05:36:40;4.10;;;3.22;;
61291;SDS011;47165;42.664;23.368;2022-07-12T05:39:05;6.55;;;3.10;;
61291;SDS011;47165;42.664;23.368;2022-07-12T05:41:31;4.72;;;3.38;;
61291;SDS011;47165;42.664;23.368;2022-07-12T05:43:57;5.05;;;3.85;;
61291;SDS011;47165;42.664;23.368;2022-07-12T05:46:22;4.82;;;2.97;;
61291;SDS011;47165;42.664;23.368;2022-07-12T05:48:48;7.13;;;3.70;;
61291;SDS011;47165;42.664;23.368;2022-07-12T05:51:13;4.90;;;3.38;;
61291;SDS011;47165;42.664;23.368;2022-07-12T05:53:57;8.65;;;3.78;;
61291;SDS011;47165;42.664;23.368;2022-07-12T05:56:23;5.18;;;3.38;;
61291;SDS011;47165;42.664;23.368;2022-07-12T05:58:48;7.88;;;3.97;;
61291;SDS011;47165;42.664;23.368;2022-07-12T06:01:14;7.30;;;3.50;;
61291;SDS011;47165;42.664;23.368;2022-07-12T06:03:39;5.30;;;3.75;;
61291;SDS011;47165;42.664;23.368;2022-07-12T06:06:05;4.18;;;3.05;;
61291;SDS011;47165;42.664;23.368;2022-07-12T06:08:30;6.75;;;3.63;;
61291;SDS011;47165;42.664;23.368;2022-07-12T06:10:56;3.70;;;3.05;;
61291;SDS011;47165;42.664;23.368;2022-07-12T06:13:21;6.55;;;3.65;;
61291;SDS011;47165;42.664;23.368;2022-07-12T06:15:47;3.90;;;3.20;;
61291;SDS011;47165;42.664;23.368;2022-07-12T06:18:12;8.23;;;3.13;;
61291;SDS011;47165;42.664;23.368;2022-07-12T06:20:38;5.75;;;3.63;;
61291;SDS011;47165;42.664;23.368;2022-07-12T06:23:03;3.80;;;3.05;;
61291;SDS011;47165;42.664;23.368;2022-07-12T06:25:29;5.75;;;2.60;;
61291;SDS011;47165;42.664;23.368;2022-07-12T06:27:54;4.07;;;2.00;;
61291;SDS011;47165;42.664;23.368;2022-07-12T06:30:20;3.47;;;2.00;;
61291;SDS011;47165;42.664;23.368;2022-07-12T06:32:47;4.53;;;2.95;;
61291;SDS011;47165;42.664;23.368;2022-07-12T06:35:13;5.82;;;2.53;;
61291;SDS011;47165;42.664;23.368;2022-07-12T06:37:43;5.35;;;2.70;;
61291;SDS011;47165;42.664;23.368;2022-07-12T06:40:09;2.28;;;2.03;;
61291;SDS011;47165;42.664;23.368;2022-07-12T06:42:35;3.15;;;1.75;;
61291;SDS011;47165;42.664;23.368;2022-07-12T06:45:01;4.20;;;2.35;;
61291;SDS011;47165;42.664;23.368;2022-07-12T06:47:27;4.63;;;2.22;;
61291;SDS011;47165;42.664;23.368;2022-07-12T06:49:52;5.45;;;2.72;;
61291;SDS011;47165;42.664;23.368;2022-07-12T06:52:18;8.63;;;2.97;;
61291;SDS011;47165;42.664;23.368;2022-07-12T06:54:43;4.70;;;2.50;;
61291;SDS011;47165;42.664;23.368;2022-07-12T06:57:09;2.40;;;1.65;;
61291;SDS011;47165;42.664;23.368;2022-07-12T06:59:35;2.70;;;1.75;;
61291;SDS011;47165;42.664;23.368;2022-07-12T07:02:00;1.83;;;1.40;;
61291;SDS011;47165;42.664;23.368;2022-07-12T07:04:26;2.28;;;1.70;;
61291;SDS011;47165;42.664;23.368;2022-07-12T07:06:51;2.22;;;1.58;;
61291;SDS011;47165;42.664;23.368;2022-07-12T07:09:17;2.58;;;1.70;;
61291;SDS011;47165;42.664;23.368;2022-07-12T07:11:42;4.22;;;1.80;;
61291;SDS011;47165;42.664;23.368;2022-07-12T07:14:08;2.92;;;1.92;;
61291;SDS011;47165;42.664;23.368;2022-07-12T07:16:34;3.85;;;2.10;;
61291;SDS011;47165;42.664;23.368;2022-07-12T07:18:59;4.80;;;1.55;;
61291;SDS011;47165;42.664;23.368;2022-07-12T07:21:27;2.75;;;2.00;;
61291;SDS011;47165;42.664;23.368;2022-07-12T07:23:53;4.30;;;2.15;;
61291;SDS011;47165;42.664;23.368;2022-07-12T07:26:18;2.20;;;1.50;;
61291;SDS011;47165;42.664;23.368;2022-07-12T07:28:44;2.85;;;1.40;;
61291;SDS011;47165;42.664;23.368;2022-07-12T07:31:28;1.67;;;1.30;;
61291;SDS011;47165;42.664;23.368;2022-07-12T07:33:54;1.50;;;1.30;;
61291;SDS011;47165;42.664;23.368;2022-07-12T07:36:19;1.95;;;1.05;;
61291;SDS011;47165;42.664;23.368;2022-07-12T07:38:45;1.23;;;0.98;;
61291;SDS011;47165;42.664;23.368;2022-07-12T07:41:10;3.78;;;1.08;;
61291;SDS011;47165;42.664;23.368;2022-07-12T07:43:36;1.20;;;0.85;;
61291;SDS011;47165;42.664;23.368;2022-07-12T07:46:01;2.67;;;0.93;;
61291;SDS011;47165;42.664;23.368;2022-07-12T07:48:27;3.58;;;1.08;;
61291;SDS011;47165;42.664;23.368;2022-07-12T07:50:53;1.60;;;1.05;;
61291;SDS011;47165;42.664;23.368;2022-07-12T07:53:19;1.77;;;1.02;;
61291;SDS011;47165;42.664;23.368;2022-07-12T07:55:44;1.10;;;1.00;;
61291;SDS011;47165;42.664;23.368;2022-07-12T07:58:10;1.60;;;0.98;;
61291;SDS011;47165;42.664;23.368;2022-07-12T08:00:35;1.55;;;0.90;;
61291;SDS011;47165;42.664;23.368;2022-07-12T08:03:01;0.73;;;0.73;;
61291;SDS011;47165;42.664;23.368;2022-07-12T08:05:26;2.40;;;0.80;;
61291;SDS011;47165;42.664;23.368;2022-07-12T08:07:52;3.00;;;1.20;;
61291;SDS011;47165;42.664;23.368;2022-07-12T08:10:17;3.85;;;1.48;;
61291;SDS011;47165;42.664;23.368;2022-07-12T08:12:43;1.92;;;1.02;;
61291;SDS011;47165;42.664;23.368;2022-07-12T08:15:08;1.38;;;0.80;;
61291;SDS011;47165;42.664;23.368;2022-07-12T08:17:34;12.20;;;1.05;;
61291;SDS011;47165;42.664;23.368;2022-07-12T08:20:02;2.15;;;0.77;;
61291;SDS011;47165;42.664;23.368;2022-07-12T08:22:28;3.17;;;0.98;;
61291;SDS011;47165;42.664;23.368;2022-07-12T08:24:53;0.98;;;0.70;;
61291;SDS011;47165;42.664;23.368;2022-07-12T08:27:19;1.00;;;0.75;;
61291;SDS011;47165;42.664;23.368;2022-07-12T08:29:44;0.50;;;0.50;;
61291;SDS011;47165;42.664;23.368;2022-07-12T08:32:10;3.53;;;0.80;;
61291;SDS011;47165;42.664;23.368;2022-07-12T08:34:35;2.13;;;1.00;;
61291;SDS011;47165;42.664;23.368;2022-07-12T08:37:01;0.88;;;0.75;;
61291;SDS011;47165;42.664;23.368;2022-07-12T08:39:26;2.35;;;0.55;;
61291;SDS011;47165;42.664;23.368;2022-07-12T08:41:52;3.35;;;1.73;;
61291;SDS011;47165;42.664;23.368;2022-07-12T08:44:17;3.00;;;1.40;;
61291;SDS011;47165;42.664;23.368;2022-07-12T08:46:42;1.02;;;0.80;;
61291;SDS011;47165;42.664;23.368;2022-07-12T08:49:08;1.63;;;1.08;;
61291;SDS011;47165;42.664;23.368;2022-07-12T08:51:34;1.90;;;1.00;;
61291;SDS011;47165;42.664;23.368;2022-07-12T08:59:20;4.72;;;1.20;;
61291;SDS011;47165;42.664;23.368;2022-07-12T09:04:22;1.08;;;1.00;;
61291;SDS011;47165;42.664;23.368;2022-07-12T09:06:49;2.03;;;0.93;;
61291;SDS011;47165;42.664;23.368;2022-07-12T09:09:27;1.77;;;0.90;;
61291;SDS011;47165;42.664;23.368;2022-07-12T09:11:57;0.98;;;0.77;;
61291;SDS011;47165;42.664;23.368;2022-07-12T09:14:23;1.73;;;0.95;;
61291;SDS011;47165;42.664;23.368;2022-07-12T09:17:05;1.10;;;1.00;;
61291;SDS011;47165;42.664;23.368;2022-07-12T09:19:37;2.67;;;1.17;;
61291;SDS011;47165;42.664;23.368;2022-07-12T09:22:02;3.15;;;1.48;;
61291;SDS011;47165;42.664;23.368;2022-07-12T09:24:29;6.75;;;1.85;;
61291;SDS011;47165;42.664;23.368;2022-07-12T09:27:00;2.63;;;0.90;;
61291;SDS011;47165;42.664;23.368;2022-07-12T09:29:27;2.60;;;0.75;;
61291;SDS011;47165;42.664;23.368;2022-07-12T09:31:53;4.45;;;1.00;;
61291;SDS011;47165;42.664;23.368;2022-07-12T09:34:37;1.13;;;1.02;;
61291;SDS011;47165;42.664;23.368;2022-07-12T09:37:21;0.90;;;0.77;;
61291;SDS011;47165;42.664;23.368;2022-07-12T09:39:49;1.48;;;0.90;;
61291;SDS011;47165;42.664;23.368;2022-07-12T09:42:16;4.55;;;1.20;;
61291;SDS011;47165;42.664;23.368;2022-07-12T09:44:43;1.08;;;0.88;;
61291;SDS011;47165;42.664;23.368;2022-07-12T09:47:09;0.70;;;0.70;;
61291;SDS011;47165;42.664;23.368;2022-07-12T09:49:38;2.80;;;1.27;;
61291;SDS011;47165;42.664;23.368;2022-07-12T09:52:04;1.30;;;0.85;;
61291;SDS011;47165;42.664;23.368;2022-07-12T09:54:31;3.83;;;0.90;;
61291;SDS011;47165;42.664;23.368;2022-07-12T09:57:02;1.70;;;0.80;;
61291;SDS011;47165;42.664;23.368;2022-07-12T09:59:29;1.83;;;0.80;;
61291;SDS011;47165;42.664;23.368;2022-07-12T10:02:00;0.88;;;0.73;;
61291;SDS011;47165;42.664;23.368;2022-07-12T10:04:29;0.63;;;0.55;;
61291;SDS011;47165;42.664;23.368;2022-07-12T10:06:58;2.35;;;0.57;;
61291;SDS011;47165;42.664;23.368;2022-07-12T10:09:24;1.70;;;0.65;;
61291;SDS011;47165;42.664;23.368;2022-07-12T10:11:51;0.82;;;0.60;;
61291;SDS011;47165;42.664;23.368;2022-07-12T10:14:17;0.75;;;0.50;;
61291;SDS011;47165;42.664;23.368;2022-07-12T10:16:44;6.28;;;0.60;;
61291;SDS011;47165;42.664;23.368;2022-07-12T10:22:00;0.70;;;0.60;;
61291;SDS011;47165;42.664;23.368;2022-07-12T10:29:42;0.50;;;0.50;;
61291;SDS011;47165;42.664;23.368;2022-07-12T10:34:57;4.15;;;0.50;;
61291;SDS011;47165;42.664;23.368;2022-07-12T10:37:24;1.60;;;0.85;;
61291;SDS011;47165;42.664;23.368;2022-07-12T10:42:36;2.17;;;0.70;;
61291;SDS011;47165;42.664;23.368;2022-07-12T10:45:15;1.67;;;0.88;;
61291;SDS011;47165;42.664;23.368;2022-07-12T10:47:56;1.83;;;0.90;;
61291;SDS011;47165;42.664;23.368;2022-07-12T10:58:44;3.22;;;0.60;;
61291;SDS011;47165;42.664;23.368;2022-07-12T11:01:17;0.68;;;0.52;;
61291;SDS011;47165;42.664;23.368;2022-07-12T11:03:51;2.65;;;0.73;;
61291;SDS011;47165;42.664;23.368;2022-07-12T11:06:25;3.85;;;0.80;;
61291;SDS011;47165;42.664;23.368;2022-07-12T11:11:25;0.93;;;0.60;;
61291;SDS011;47165;42.664;23.368;2022-07-12T11:13:56;0.65;;;0.60;;
61291;SDS011;47165;42.664;23.368;2022-07-12T11:16:23;0.90;;;0.68;;
61291;SDS011;47165;42.664;23.368;2022-07-12T11:18:49;4.20;;;0.80;;
61291;SDS011;47165;42.664;23.368;2022-07-12T11:21:15;2.13;;;1.00;;
61291;SDS011;47165;42.664;23.368;2022-07-12T11:23:41;1.60;;;0.93;;
61291;SDS011;47165;42.664;23.368;2022-07-12T11:26:07;1.65;;;0.90;;
61291;SDS011;47165;42.664;23.368;2022-07-12T11:28:33;2.28;;;0.77;;
61291;SDS011;47165;42.664;23.368;2022-07-12T11:33:29;0.85;;;0.70;;
61291;SDS011;47165;42.664;23.368;2022-07-12T11:36:00;1.13;;;0.80;;
61291;SDS011;47165;42.664;23.368;2022-07-12T11:38:28;1.10;;;0.90;;
61291;SDS011;47165;42.664;23.368;2022-07-12T11:41:03;0.75;;;0.75;;
61291;SDS011;47165;42.664;23.368;2022-07-12T11:43:30;1.45;;;0.88;;
61291;SDS011;47165;42.664;23.368;2022-07-12T11:45:57;1.35;;;0.73;;
61291;SDS011;47165;42.664;23.368;2022-07-12T11:48:23;1.02;;;0.85;;
61291;SDS011;47165;42.664;23.368;2022-07-12T11:50:50;0.60;;;0.52;;
61291;SDS011;47165;42.664;23.368;2022-07-12T11:53:18;1.60;;;1.05;;
61291;SDS011;47165;42.664;23.368;2022-07-12T11:55:47;1.92;;;1.00;;
61291;SDS011;47165;42.664;23.368;2022-07-12T11:58:14;0.70;;;0.70;;
61291;SDS011;47165;42.664;23.368;2022-07-12T12:00:42;2.72;;;1.52;;
61291;SDS011;47165;42.664;23.368;2022-07-12T12:03:08;2.85;;;0.90;;
61291;SDS011;47165;42.664;23.368;2022-07-12T12:05:34;1.13;;;0.73;;
61291;SDS011;47165;42.664;23.368;2022-07-12T12:08:01;1.85;;;0.90;;
61291;SDS011;47165;42.664;23.368;2022-07-12T12:10:27;1.38;;;0.82;;
61291;SDS011;47165;42.664;23.368;2022-07-12T12:12:56;1.75;;;0.80;;
61291;SDS011;47165;42.664;23.368;2022-07-12T12:15:27;0.80;;;0.70;;
61291;SDS011;47165;42.664;23.368;2022-07-12T12:20:41;1.17;;;0.60;;
61291;SDS011;47165;42.664;23.368;2022-07-12T12:23:16;1.40;;;0.75;;
61291;SDS011;47165;42.664;23.368;2022-07-12T12:25:44;0.63;;;0.50;;
61291;SDS011;47165;42.664;23.368;2022-07-12T12:28:11;0.75;;;0.75;;
61291;SDS011;47165;42.664;23.368;2022-07-12T12:30:59;1.48;;;0.93;;
61291;SDS011;47165;42.664;23.368;2022-07-12T12:33:37;0.85;;;0.70;;
61291;SDS011;47165;42.664;23.368;2022-07-12T12:38:41;0.90;;;0.60;;
61291;SDS011;47165;42.664;23.368;2022-07-12T12:41:07;2.45;;;0.60;;
61291;SDS011;47165;42.664;23.368;2022-07-12T12:43:34;1.08;;;0.77;;
61291;SDS011;47165;42.664;23.368;2022-07-12T12:45:59;1.30;;;0.90;;
61291;SDS011;47165;42.664;23.368;2022-07-12T12:48:25;5.18;;;0.98;;
61291;SDS011;47165;42.664;23.368;2022-07-12T12:50:54;2.88;;;0.77;;
61291;SDS011;47165;42.664;23.368;2022-07-12T12:53:32;0.85;;;0.40;;
61291;SDS011;47165;42.664;23.368;2022-07-12T12:55:58;2.75;;;0.80;;
61291;SDS011;47165;42.664;23.368;2022-07-12T12:58:24;2.80;;;0.60;;
61291;SDS011;47165;42.664;23.368;2022-07-12T13:00:51;0.60;;;0.60;;
61291;SDS011;47165;42.664;23.368;2022-07-12T13:03:19;2.05;;;0.55;;
61291;SDS011;47165;42.664;23.368;2022-07-12T13:05:46;0.68;;;0.68;;
61291;SDS011;47165;42.664;23.368;2022-07-12T13:08:13;1.45;;;0.88;;
61291;SDS011;47165;42.664;23.368;2022-07-12T13:10:40;1.52;;;0.80;;
61291;SDS011;47165;42.664;23.368;2022-07-12T13:13:07;2.13;;;0.90;;
61291;SDS011;47165;42.664;23.368;2022-07-12T13:15:34;0.60;;;0.60;;
61291;SDS011;47165;42.664;23.368;2022-07-12T13:18:00;3.55;;;0.60;;
61291;SDS011;47165;42.664;23.368;2022-07-12T13:20:27;1.83;;;0.57;;
61291;SDS011;47165;42.664;23.368;2022-07-12T13:22:53;3.22;;;0.90;;
61291;SDS011;47165;42.664;23.368;2022-07-12T13:25:19;1.42;;;0.90;;
61291;SDS011;47165;42.664;23.368;2022-07-12T13:27:45;1.52;;;0.90;;
61291;SDS011;47165;42.664;23.368;2022-07-12T13:30:12;2.67;;;0.93;;
61291;SDS011;47165;42.664;23.368;2022-07-12T13:32:39;1.95;;;0.82;;
61291;SDS011;47165;42.664;23.368;2022-07-12T13:35:05;4.00;;;0.90;;
61291;SDS011;47165;42.664;23.368;2022-07-12T13:37:32;0.65;;;0.65;;
61291;SDS011;47165;42.664;23.368;2022-07-12T13:39:58;2.90;;;1.30;;
61291;SDS011;47165;42.664;23.368;2022-07-12T13:42:45;2.13;;;0.88;;
61291;SDS011;47165;42.664;23.368;2022-07-12T13:45:14;2.10;;;0.90;;
61291;SDS011;47165;42.664;23.368;2022-07-12T13:47:41;1.20;;;0.98;;
61291;SDS011;47165;42.664;23.368;2022-07-12T13:50:09;1.30;;;0.50;;
61291;SDS011;47165;42.664;23.368;2022-07-12T13:52:36;1.02;;;0.60;;
61291;SDS011;47165;42.664;23.368;2022-07-12T13:55:01;3.17;;;0.85;;
61291;SDS011;47165;42.664;23.368;2022-07-12T13:57:28;2.97;;;0.80;;
61291;SDS011;47165;42.664;23.368;2022-07-12T13:59:53;3.05;;;1.00;;
61291;SDS011;47165;42.664;23.368;2022-07-12T14:02:19;1.40;;;0.73;;
61291;SDS011;47165;42.664;23.368;2022-07-12T14:04:44;1.98;;;0.93;;
61291;SDS011;47165;42.664;23.368;2022-07-12T14:07:10;4.32;;;0.90;;
61291;SDS011;47165;42.664;23.368;2022-07-12T14:09:36;4.18;;;1.15;;
61291;SDS011;47165;42.664;23.368;2022-07-12T14:12:02;1.35;;;0.90;;
61291;SDS011;47165;42.664;23.368;2022-07-12T14:14:28;1.02;;;0.70;;
61291;SDS011;47165;42.664;23.368;2022-07-12T14:17:13;1.77;;;0.88;;
61291;SDS011;47165;42.664;23.368;2022-07-12T14:19:38;2.45;;;0.90;;
61291;SDS011;47165;42.664;23.368;2022-07-12T14:22:04;1.67;;;0.90;;
61291;SDS011;47165;42.664;23.368;2022-07-12T14:24:29;2.03;;;1.30;;
61291;SDS011;47165;42.664;23.368;2022-07-12T14:26:55;5.07;;;1.00;;
61291;SDS011;47165;42.664;23.368;2022-07-12T14:29:20;2.40;;;1.17;;
61291;SDS011;47165;42.664;23.368;2022-07-12T14:31:46;1.52;;;0.98;;
61291;SDS011;47165;42.664;23.368;2022-07-12T14:34:11;2.13;;;0.70;;
61291;SDS011;47165;42.664;23.368;2022-07-12T14:36:37;3.92;;;1.00;;
61291;SDS011;47165;42.664;23.368;2022-07-12T14:39:02;2.38;;;1.10;;
61291;SDS011;47165;42.664;23.368;2022-07-12T14:41:28;1.08;;;0.65;;
61291;SDS011;47165;42.664;23.368;2022-07-12T14:43:54;0.95;;;0.70;;
61291;SDS011;47165;42.664;23.368;2022-07-12T14:46:20;3.38;;;0.80;;
61291;SDS011;47165;42.664;23.368;2022-07-12T14:48:45;1.42;;;0.70;;
61291;SDS011;47165;42.664;23.368;2022-07-12T14:51:11;3.80;;;0.70;;
61291;SDS011;47165;42.664;23.368;2022-07-12T14:53:36;6.60;;;1.10;;
61291;SDS011;47165;42.664;23.368;2022-07-12T14:56:01;1.63;;;0.70;;
61291;SDS011;47165;42.664;23.368;2022-07-12T14:58:27;1.38;;;0.60;;
61291;SDS011;47165;42.664;23.368;2022-07-12T15:00:55;0.80;;;0.60;;
61291;SDS011;47165;42.664;23.368;2022-07-12T15:03:21;1.30;;;0.80;;
61291;SDS011;47165;42.664;23.368;2022-07-12T15:05:46;1.08;;;0.80;;
61291;SDS011;47165;42.664;23.368;2022-07-12T15:08:12;0.68;;;0.60;;
61291;SDS011;47165;42.664;23.368;2022-07-12T15:10:37;1.17;;;0.68;;